Time;durP1;ratioP1;P1;durP2;ratioP2;P2;SDS_P1;SDS_P2;PMS_P1;PMS_P2;Temp;Humidity;BMP_temperature;BMP_pressure;BME280_temperature;BME280_humidity;BME280_pressure;Samples;Min_cycle;Max_cycle;Signal;HPM_P1;HPM_P2
2022/03/19 00:02:21;;;;;;;15.45;11.35;;;8.90;78.80;;;;;;5061389;28;20067;-72
2022/03/19 00:04:47;;;;;;;17.92;11.63;;;8.80;79.10;;;;;;5069402;28;20048;-72
2022/03/19 00:07:13;;;;;;;15.93;10.73;;;8.80;79.30;;;;;;5072278;28;20256;-72
2022/03/19 00:09:39;;;;;;;24.05;11.63;;;8.70;79.60;;;;;;5073409;28;20548;-72
2022/03/19 00:12:12;;;;;;;18.50;11.88;;;8.60;79.90;;;;;;5072042;28;20077;-72
2022/03/19 00:14:38;;;;;;;25.35;11.68;;;8.60;80.00;;;;;;5071471;28;20017;-72
2022/03/19 00:17:04;;;;;;;17.60;10.95;;;8.50;80.30;;;;;;5072140;28;20476;-72
2022/03/19 00:19:30;;;;;;;22.33;11.43;;;8.50;80.50;;;;;;5061119;28;20103;-72
2022/03/19 00:21:56;;;;;;;19.60;11.95;;;8.50;80.60;;;;;;5073924;28;20047;-73
2022/03/19 00:24:21;;;;;;;16.67;10.73;;;8.40;80.60;;;;;;5090448;28;20446;-73
2022/03/19 00:26:47;;;;;;;18.55;11.55;;;8.40;80.90;;;;;;5076066;28;20055;-72
2022/03/19 00:29:13;;;;;;;20.00;11.85;;;8.30;81.20;;;;;;5088194;28;20024;-73
2022/03/19 00:31:39;;;;;;;30.20;11.85;;;8.10;81.70;;;;;;5075355;28;20031;-73
2022/03/19 00:34:04;;;;;;;26.23;12.68;;;8.20;82.00;;;;;;5075901;28;20030;-73
2022/03/19 00:36:30;;;;;;;19.77;11.45;;;8.10;82.00;;;;;;5093754;28;20030;-72
2022/03/19 00:38:56;;;;;;;25.90;11.95;;;8.10;82.30;;;;;;5096142;28;20375;-73
2022/03/19 00:41:22;;;;;;;20.35;12.07;;;8.10;82.20;;;;;;5097055;28;20146;-73
2022/03/19 00:43:47;;;;;;;18.15;12.35;;;8.10;82.20;;;;;;5099935;28;20035;-73
2022/03/19 00:46:15;;;;;;;20.70;12.38;;;8.00;82.20;;;;;;5073518;28;20415;-73
2022/03/19 00:48:41;;;;;;;21.27;12.30;;;8.00;82.30;;;;;;5073672;28;20537;-73
2022/03/19 00:51:07;;;;;;;18.90;12.43;;;8.00;82.70;;;;;;5093554;28;20055;-72
2022/03/19 00:53:33;;;;;;;19.33;12.13;;;8.00;83.00;;;;;;5094408;28;20067;-73
2022/03/19 00:55:59;;;;;;;25.45;12.98;;;7.90;83.10;;;;;;5093801;28;20047;-72
2022/03/19 00:58:25;;;;;;;20.20;12.43;;;8.00;83.50;;;;;;5075015;28;20077;-72
2022/03/19 01:00:51;;;;;;;17.30;12.07;;;8.00;83.30;;;;;;5074375;28;20032;-73
2022/03/19 01:03:17;;;;;;;21.52;12.07;;;7.80;83.20;;;;;;5093385;28;20031;-72
2022/03/19 01:05:43;;;;;;;22.58;12.73;;;7.70;83.40;;;;;;5075053;28;20118;-72
2022/03/19 01:08:11;;;;;;;21.35;12.10;;;7.70;83.80;;;;;;5092847;28;20446;-72
2022/03/19 01:10:40;;;;;;;20.10;12.65;;;7.70;83.90;;;;;;5090926;28;20386;-73
2022/03/19 01:13:06;;;;;;;18.83;12.48;;;7.70;84.00;;;;;;5093123;28;20487;-73
2022/03/19 01:15:33;;;;;;;25.42;13.43;;;7.70;84.10;;;;;;5092326;28;20028;-72
2022/03/19 01:18:00;;;;;;;19.45;12.75;;;7.60;84.10;;;;;;5092590;28;20024;-73
2022/03/19 01:20:26;;;;;;;21.30;12.07;;;7.50;84.70;;;;;;5092322;28;20022;-72
2022/03/19 01:22:52;;;;;;;22.60;13.05;;;7.50;84.70;;;;;;5092018;28;20031;-72
2022/03/19 01:25:19;;;;;;;23.77;13.07;;;7.60;84.60;;;;;;5092541;28;20027;-73
2022/03/19 01:27:46;;;;;;;20.10;12.57;;;7.50;84.70;;;;;;5074586;28;20027;-72
2022/03/19 01:30:14;;;;;;;20.38;12.45;;;7.60;84.70;;;;;;5091824;28;20618;-72
2022/03/19 01:32:40;;;;;;;22.40;12.60;;;7.50;84.60;;;;;;5072113;28;20388;-73
2022/03/19 01:35:07;;;;;;;24.15;12.88;;;7.50;84.80;;;;;;5072109;28;20024;-72
2022/03/19 01:37:33;;;;;;;23.50;13.43;;;7.40;85.00;;;;;;5073254;28;20487;-73
2022/03/19 01:39:59;;;;;;;19.33;12.40;;;7.40;85.40;;;;;;5092255;28;20024;-72
2022/03/19 01:42:26;;;;;;;18.60;11.95;;;7.40;85.60;;;;;;5074377;28;20028;-72
2022/03/19 01:44:53;;;;;;;21.77;13.65;;;7.40;85.20;;;;;;5092408;28;20503;-72
2022/03/19 01:47:19;;;;;;;27.27;14.93;;;7.40;85.30;;;;;;5091242;28;20107;-72
2022/03/19 01:49:45;;;;;;;21.83;12.70;;;7.30;85.60;;;;;;5090447;28;20043;-72
2022/03/19 01:52:11;;;;;;;21.98;12.55;;;7.20;86.20;;;;;;5092222;28;20024;-72
2022/03/19 01:54:40;;;;;;;19.70;12.60;;;7.20;86.50;;;;;;5092293;28;20020;-72
2022/03/19 01:57:06;;;;;;;21.58;12.00;;;7.20;86.70;;;;;;5092205;28;20479;-73
2022/03/19 01:59:36;;;;;;;24.02;13.00;;;7.20;86.90;;;;;;5091150;28;20067;-73
2022/03/19 02:02:07;;;;;;;22.92;13.48;;;7.10;86.90;;;;;;5076888;28;20430;-72
2022/03/19 02:04:35;;;;;;;22.67;13.48;;;7.10;87.30;;;;;;5072046;28;20052;-73
2022/03/19 02:07:11;;;;;;;19.27;12.50;;;7.00;87.40;;;;;;5054045;28;20029;-72
2022/03/19 02:09:38;;;;;;;22.17;12.68;;;6.90;88.50;;;;;;5089100;28;20036;-72
2022/03/19 02:12:05;;;;;;;20.15;12.98;;;6.90;87.90;;;;;;5092465;28;20024;-73
2022/03/19 02:14:34;;;;;;;21.02;12.05;;;6.90;88.30;;;;;;5092177;28;20051;-73
2022/03/19 02:17:02;;;;;;;22.23;14.07;;;6.80;88.50;;;;;;5090291;28;20020;-73
2022/03/19 02:19:28;;;;;;;20.77;12.68;;;6.80;88.70;;;;;;5092172;28;20020;-73
2022/03/19 02:21:54;;;;;;;22.00;13.05;;;6.90;88.80;;;;;;5092490;28;20059;-73
2022/03/19 02:27:04;;;;;;;23.13;12.75;;;6.90;88.80;;;;;;5090616;28;20117;-73
2022/03/19 02:29:30;;;;;;;20.25;12.75;;;6.80;89.00;;;;;;5092117;28;20605;-73
2022/03/19 02:32:14;;;;;;;23.65;13.05;;;6.80;89.10;;;;;;5089138;28;20111;-73
2022/03/19 02:34:40;;;;;;;23.52;13.63;;;6.80;89.20;;;;;;5074053;28;20483;-73
2022/03/19 02:37:06;;;;;;;25.35;14.60;;;6.80;89.60;;;;;;5091620;28;20114;-73
2022/03/19 02:39:32;;;;;;;24.38;13.23;;;6.80;89.60;;;;;;5070699;28;20040;-73
2022/03/19 02:42:02;;;;;;;22.85;13.75;;;6.80;89.60;;;;;;5090701;28;20398;-73
2022/03/19 02:44:28;;;;;;;23.70;14.10;;;6.90;89.60;;;;;;5090143;28;20061;-73
2022/03/19 02:46:59;;;;;;;22.83;14.43;;;6.90;89.40;;;;;;5091628;28;20028;-73
2022/03/19 02:49:26;;;;;;;21.33;13.87;;;6.80;89.60;;;;;;5089186;28;20032;-73
2022/03/19 02:51:53;;;;;;;28.90;15.00;;;6.80;89.90;;;;;;5089866;28;20032;-73
2022/03/19 02:54:21;;;;;;;23.42;13.43;;;6.70;90.00;;;;;;5091656;28;20020;-73
2022/03/19 02:56:48;;;;;;;26.95;14.95;;;6.70;90.20;;;;;;5091770;28;20556;-73
2022/03/19 02:59:17;;;;;;;23.92;14.50;;;6.70;90.30;;;;;;5073613;28;20038;-73
2022/03/19 03:01:47;;;;;;;23.75;13.13;;;6.70;90.30;;;;;;5077575;28;20032;-73
2022/03/19 03:04:13;;;;;;;23.52;14.32;;;6.70;90.30;;;;;;5071014;28;20083;-73
2022/03/19 03:06:44;;;;;;;23.02;13.70;;;6.60;90.60;;;;;;5071016;28;20028;-73
2022/03/19 03:09:11;;;;;;;23.77;13.75;;;6.60;90.70;;;;;;5071126;28;20167;-72
2022/03/19 03:11:38;;;;;;;26.50;14.65;;;6.60;90.70;;;;;;5089152;28;20028;-72
2022/03/19 03:14:08;;;;;;;25.98;14.10;;;6.70;90.80;;;;;;5073431;28;20023;-73
2022/03/19 03:16:34;;;;;;;25.42;15.05;;;6.70;90.70;;;;;;5091478;28;20058;-73
2022/03/19 03:19:05;;;;;;;25.23;14.23;;;6.70;90.70;;;;;;5071304;28;20071;-72
2022/03/19 03:21:32;;;;;;;23.52;14.68;;;6.70;90.70;;;;;;5090639;28;20024;-72
2022/03/19 03:23:59;;;;;;;24.55;13.23;;;6.70;90.80;;;;;;5088266;28;20387;-72
2022/03/19 03:26:25;;;;;;;25.40;14.50;;;6.70;90.80;;;;;;5069206;28;20064;-72
2022/03/19 03:28:52;;;;;;;27.17;15.43;;;6.70;90.80;;;;;;5088874;28;20024;-73
2022/03/19 03:31:18;;;;;;;22.70;13.85;;;6.70;91.10;;;;;;5071532;28;20078;-73
2022/03/19 03:33:45;;;;;;;23.35;14.32;;;6.70;91.10;;;;;;5054287;28;20036;-79
2022/03/19 03:36:11;;;;;;;24.15;13.98;;;6.70;92.60;;;;;;5075565;28;20143;-78
2022/03/19 03:38:37;;;;;;;27.05;14.32;;;6.70;91.60;;;;;;5057417;28;20123;-78
2022/03/19 03:41:02;;;;;;;27.13;13.88;;;6.60;91.70;;;;;;5057947;28;20033;-79
2022/03/19 03:43:28;;;;;;;24.80;13.77;;;6.60;91.70;;;;;;5057986;28;21167;-79
2022/03/19 03:45:55;;;;;;;22.10;12.85;;;6.60;91.70;;;;;;5075450;28;20104;-79
2022/03/19 03:48:21;;;;;;;23.75;13.63;;;6.60;91.70;;;;;;5056874;28;20051;-79
2022/03/19 03:50:49;;;;;;;22.40;13.82;;;6.60;91.70;;;;;;5073780;28;20483;-79
2022/03/19 03:53:15;;;;;;;24.13;13.45;;;6.60;91.80;;;;;;5073723;28;20024;-79
2022/03/19 03:55:41;;;;;;;23.77;13.77;;;6.60;91.90;;;;;;5085944;28;20529;-79
2022/03/19 03:58:08;;;;;;;27.60;14.13;;;6.50;92.10;;;;;;5093520;28;20028;-79
2022/03/19 04:00:34;;;;;;;23.65;14.10;;;6.50;92.20;;;;;;5094157;28;20047;-79
2022/03/19 04:03:00;;;;;;;23.25;14.70;;;6.50;92.20;;;;;;5076734;28;20030;-79
2022/03/19 04:05:26;;;;;;;24.08;14.40;;;6.40;92.40;;;;;;5095593;28;20024;-79
2022/03/19 04:07:52;;;;;;;23.23;14.23;;;6.30;92.70;;;;;;5077096;28;20036;-79
2022/03/19 04:10:18;;;;;;;26.17;14.80;;;6.30;92.80;;;;;;5095324;28;20038;-79
2022/03/19 04:12:44;;;;;;;24.50;14.77;;;6.20;93.00;;;;;;5095319;28;20028;-79
2022/03/19 04:15:10;;;;;;;24.13;14.25;;;6.20;93.10;;;;;;5095251;28;20019;-79
2022/03/19 04:17:37;;;;;;;23.70;14.18;;;6.30;93.20;;;;;;5095290;28;20031;-79
2022/03/19 04:20:06;;;;;;;24.73;15.05;;;6.30;93.20;;;;;;5095371;28;20020;-79
2022/03/19 04:22:44;;;;;;;24.38;14.38;;;6.30;93.20;;;;;;5076339;28;20051;-79
2022/03/19 04:25:15;;;;;;;21.90;13.50;;;6.30;93.20;;;;;;5074267;28;20020;-79
2022/03/19 04:27:42;;;;;;;24.00;13.40;;;6.30;93.20;;;;;;5091676;28;20052;-80
2022/03/19 04:30:13;;;;;;;26.92;15.25;;;6.30;93.30;;;;;;5073825;28;20024;-79
2022/03/19 04:32:43;;;;;;;23.23;13.70;;;6.30;93.50;;;;;;5091819;28;20020;-79
2022/03/19 04:38:02;;;;;;;24.80;14.02;;;6.30;93.50;;;;;;5091794;28;20047;-79
2022/03/19 04:40:30;;;;;;;24.73;14.52;;;6.30;93.50;;;;;;5074920;28;20501;-80
2022/03/19 04:42:55;;;;;;;25.30;15.27;;;6.40;93.50;;;;;;5093641;28;20038;-79
2022/03/19 04:45:21;;;;;;;22.70;14.18;;;6.40;93.60;;;;;;5074737;28;20043;-79
2022/03/19 04:47:47;;;;;;;25.65;14.40;;;6.30;93.80;;;;;;5091428;28;20487;-79
2022/03/19 04:50:13;;;;;;;26.98;14.73;;;6.30;93.80;;;;;;5091786;28;20031;-79
2022/03/19 04:52:40;;;;;;;26.70;14.55;;;6.30;93.90;;;;;;5073760;28;20031;-79
2022/03/19 04:55:12;;;;;;;24.83;13.68;;;6.20;94.00;;;;;;5091365;28;20039;-79
2022/03/19 04:57:38;;;;;;;;;;;6.20;94.30;;;;;;5091926;28;20028;-79
2022/03/19 05:00:06;;;;;;;26.20;14.88;;;6.20;94.40;;;;;;5091750;28;19911;-80
2022/03/19 05:02:32;;;;;;;26.58;15.52;;;6.10;94.60;;;;;;5075078;28;20030;-79
2022/03/19 05:04:58;;;;;;;24.25;15.02;;;6.10;94.60;;;;;;5092957;28;20028;-79
2022/03/19 05:07:27;;;;;;;25.17;15.23;;;6.10;94.80;;;;;;5074639;28;20036;-78
2022/03/19 05:12:40;;;;;;;28.02;15.13;;;6.10;94.90;;;;;;5093028;28;20026;-79
2022/03/19 05:15:10;;;;;;;26.13;15.02;;;6.20;94.90;;;;;;5093067;28;20008;-79
2022/03/19 05:17:36;;;;;;;25.52;14.63;;;6.20;95.00;;;;;;5092890;28;20023;-79
2022/03/19 05:20:03;;;;;;;25.10;14.65;;;6.20;95.00;;;;;;5093479;28;20035;-80
2022/03/19 05:22:32;;;;;;;24.55;14.50;;;6.20;94.90;;;;;;5075315;28;20031;-79
2022/03/19 05:24:58;;;;;;;22.90;14.82;;;6.30;95.00;;;;;;5093318;28;20480;-79
2022/03/19 05:27:27;;;;;;;25.65;15.20;;;6.30;94.90;;;;;;5093292;28;20567;-79
2022/03/19 05:29:53;;;;;;;28.17;15.55;;;6.30;94.90;;;;;;5075209;28;20027;-79
2022/03/19 05:32:20;;;;;;;26.80;14.85;;;6.40;94.90;;;;;;5075304;28;20070;-79
2022/03/19 05:34:46;;;;;;;26.95;15.68;;;6.30;94.90;;;;;;5072279;28;20024;-79
2022/03/19 05:37:13;;;;;;;33.35;15.82;;;6.40;95.00;;;;;;5072081;28;20035;-79
2022/03/19 05:39:40;;;;;;;26.17;15.80;;;6.30;95.00;;;;;;5072394;28;20111;-79
2022/03/19 05:42:06;;;;;;;30.17;15.60;;;6.30;95.00;;;;;;5072152;28;20025;-79
2022/03/19 05:44:32;;;;;;;24.58;15.25;;;6.30;95.10;;;;;;5072279;28;20062;-79
2022/03/19 05:46:58;;;;;;;28.60;15.32;;;6.30;95.20;;;;;;5054072;28;20103;-79
2022/03/19 05:49:28;;;;;;;25.92;14.75;;;6.30;95.20;;;;;;5072142;28;20043;-79
2022/03/19 05:51:55;;;;;;;29.63;15.68;;;6.30;95.20;;;;;;5071883;28;20020;-79
2022/03/19 05:54:21;;;;;;;26.77;15.00;;;6.40;95.10;;;;;;5054098;28;20028;-79
2022/03/19 05:56:47;;;;;;;26.08;15.07;;;6.40;95.10;;;;;;5071493;28;20186;-79
2022/03/19 05:59:13;;;;;;;30.98;15.98;;;6.40;95.20;;;;;;5054058;28;20531;-80
2022/03/19 06:01:41;;;;;;;27.02;15.55;;;6.40;95.20;;;;;;5053915;28;20396;-79
2022/03/19 06:04:08;;;;;;;29.20;15.48;;;6.40;95.20;;;;;;5086760;28;20020;-79
2022/03/19 06:06:34;;;;;;;24.23;14.70;;;6.40;95.20;;;;;;5091904;28;20040;-79
2022/03/19 06:09:00;;;;;;;24.02;14.90;;;6.40;95.20;;;;;;5092182;28;20438;-79
2022/03/19 06:11:26;;;;;;;29.75;15.13;;;6.50;95.20;;;;;;5091885;28;20042;-79
2022/03/19 06:13:52;;;;;;;27.05;15.93;;;6.50;95.20;;;;;;5092031;28;20029;-79
2022/03/19 06:16:18;;;;;;;29.58;14.93;;;6.50;95.20;;;;;;5091926;28;20074;-80
2022/03/19 06:18:46;;;;;;;27.00;15.38;;;6.50;95.20;;;;;;5073737;28;20082;-79
2022/03/19 06:21:12;;;;;;;24.60;14.70;;;6.60;95.20;;;;;;5091813;28;20020;-79
2022/03/19 06:23:38;;;;;;;26.15;15.48;;;6.60;95.10;;;;;;5091732;28;20032;-79
2022/03/19 06:26:04;;;;;;;24.98;15.27;;;6.70;95.10;;;;;;5091880;28;20031;-79
2022/03/19 06:28:30;;;;;;;29.23;14.45;;;6.70;95.00;;;;;;5091801;28;20016;-79
2022/03/19 06:30:56;;;;;;;27.80;15.15;;;6.80;95.00;;;;;;5086006;28;20053;-79
2022/03/19 06:33:22;;;;;;;24.27;15.20;;;6.80;95.00;;;;;;5071491;28;20502;-79
2022/03/19 06:38:31;;;;;;;27.17;15.75;;;6.80;95.10;;;;;;5071503;28;20040;-79
2022/03/19 06:40:59;;;;;;;29.30;15.45;;;6.80;95.10;;;;;;5071385;28;20021;-79
2022/03/19 06:43:26;;;;;;;26.08;14.00;;;6.90;95.20;;;;;;5053530;28;20472;-80
2022/03/19 06:45:51;;;;;;;25.73;15.32;;;6.90;95.10;;;;;;5052445;28;20097;-79
2022/03/19 06:48:17;;;;;;;23.92;14.60;;;7.00;95.10;;;;;;5071074;28;20107;-80
2022/03/19 06:50:46;;;;;;;26.23;15.85;;;7.00;95.10;;;;;;5090558;28;20103;-79
2022/03/19 06:53:11;;;;;;;25.38;15.27;;;7.10;95.00;;;;;;5091696;28;20024;-79
2022/03/19 06:55:37;;;;;;;28.73;15.57;;;7.10;95.00;;;;;;5091216;28;20051;-79
2022/03/19 06:58:03;;;;;;;25.80;15.05;;;7.20;95.00;;;;;;5091798;28;20024;-79
2022/03/19 07:00:28;;;;;;;28.52;16.05;;;7.20;95.10;;;;;;5089819;28;20021;-79
2022/03/19 07:02:55;;;;;;;31.58;15.02;;;7.20;95.20;;;;;;5072133;28;20024;-79
2022/03/19 07:05:26;;;;;;;26.20;15.80;;;7.30;95.20;;;;;;5054696;28;20055;-79
2022/03/19 07:07:54;;;;;;;26.98;15.68;;;7.40;95.10;;;;;;5054363;28;20111;-79
2022/03/19 07:10:20;;;;;;;32.65;16.27;;;7.40;95.10;;;;;;5075895;28;20016;-78
2022/03/19 07:12:48;;;;;;;29.30;15.93;;;7.50;95.10;;;;;;5076303;28;20035;-78
2022/03/19 07:15:19;;;;;;;29.98;16.65;;;7.60;94.90;;;;;;5058344;28;20031;-78
2022/03/19 07:17:44;;;;;;;27.80;16.33;;;7.60;94.80;;;;;;5076065;28;20038;-79
2022/03/19 07:20:14;;;;;;;28.13;15.52;;;7.70;95.00;;;;;;5076238;28;20535;-80
2022/03/19 07:23:08;;;;;;;26.50;15.35;;;7.80;95.70;;;;;;5076137;28;20528;-80
2022/03/19 07:25:38;;;;;;;27.27;15.48;;;7.80;95.30;;;;;;5087822;28;20360;-79
2022/03/19 07:28:06;;;;;;;27.85;15.30;;;7.90;95.00;;;;;;5096389;28;20055;-79
2022/03/19 07:30:33;;;;;;;30.00;16.58;;;7.90;94.90;;;;;;5078208;28;20024;-79
2022/03/19 07:32:59;;;;;;;28.10;16.13;;;8.00;94.90;;;;;;5096366;28;20027;-79
2022/03/19 07:35:26;;;;;;;26.17;15.48;;;8.10;94.70;;;;;;5078045;28;20062;-78
2022/03/19 07:37:51;;;;;;;26.83;15.88;;;8.10;94.70;;;;;;5077878;28;20035;-78
2022/03/19 07:43:05;;;;;;;29.65;16.60;;;8.30;94.30;;;;;;5096268;28;20078;-79
2022/03/19 07:45:31;;;;;;;31.48;16.65;;;8.30;94.20;;;;;;5096064;28;20024;-80
2022/03/19 07:47:57;;;;;;;30.35;16.33;;;8.40;94.20;;;;;;5096088;28;20039;-79
2022/03/19 07:50:23;;;;;;;31.27;16.13;;;8.50;93.90;;;;;;5077798;28;20110;-80
2022/03/19 07:52:49;;;;;;;29.83;15.18;;;8.60;93.70;;;;;;5096086;28;20107;-79
2022/03/19 07:55:14;;;;;;;28.45;16.10;;;8.60;93.50;;;;;;5084399;28;20068;-79
2022/03/19 07:57:40;;;;;;;28.55;15.18;;;8.60;93.20;;;;;;5075007;28;20033;-73
2022/03/19 08:00:06;;;;;;;27.35;15.93;;;8.70;92.60;;;;;;5074605;28;20028;-73
2022/03/19 08:02:32;;;;;;;29.30;14.90;;;8.70;92.00;;;;;;5093527;28;20383;-73
2022/03/19 08:05:00;;;;;;;28.20;14.57;;;8.80;91.60;;;;;;5091157;28;20024;-73
2022/03/19 08:07:25;;;;;;;29.73;14.88;;;8.80;91.70;;;;;;5084872;28;20032;-74
2022/03/19 08:09:51;;;;;;;24.25;14.13;;;8.80;91.50;;;;;;5076873;28;20369;-73
2022/03/19 08:12:17;;;;;;;27.17;14.77;;;8.90;91.60;;;;;;5094869;28;20024;-73
2022/03/19 08:14:43;;;;;;;30.33;15.52;;;8.90;91.40;;;;;;5076725;28;20032;-73
2022/03/19 08:17:12;;;;;;;25.65;14.55;;;9.00;91.60;;;;;;5094545;28;20023;-79
2022/03/19 08:19:38;;;;;;;30.90;15.35;;;9.00;92.30;;;;;;5094101;28;20028;-79
2022/03/19 08:22:04;;;;;;;28.52;14.48;;;9.10;92.50;;;;;;5094114;28;20372;-79
2022/03/19 08:24:29;;;;;;;23.58;14.02;;;9.20;91.20;;;;;;5094225;28;20031;-79
2022/03/19 08:26:55;;;;;;;27.63;14.80;;;9.20;90.40;;;;;;5093884;28;20035;-78
2022/03/19 08:29:24;;;;;;;27.58;15.55;;;9.30;90.60;;;;;;5075571;28;20112;-78
2022/03/19 08:31:51;;;;;;;32.65;16.52;;;9.30;90.70;;;;;;5080621;28;20044;-79
2022/03/19 08:34:17;;;;;;;27.88;16.40;;;9.40;91.00;;;;;;5058791;28;20095;-79
2022/03/19 08:36:43;;;;;;;27.05;14.57;;;9.40;91.60;;;;;;5074490;28;20058;-79
2022/03/19 08:41:53;;;;;;;26.45;15.48;;;9.50;91.30;;;;;;5094268;28;20139;-79
2022/03/19 08:44:19;;;;;;;29.38;15.70;;;9.60;89.80;;;;;;5093486;28;20250;-79
2022/03/19 08:46:45;;;;;;;23.63;14.32;;;9.60;89.70;;;;;;5093556;28;20111;-79
2022/03/19 08:49:14;;;;;;;27.08;14.48;;;9.60;89.50;;;;;;5081178;28;20427;-79
2022/03/19 08:51:40;;;;;;;27.92;14.73;;;9.60;89.10;;;;;;5073170;28;20492;-79
2022/03/19 08:54:08;;;;;;;27.15;16.02;;;9.70;88.60;;;;;;5073047;28;20123;-79
2022/03/19 08:56:35;;;;;;;29.38;16.38;;;9.70;87.00;;;;;;5073296;28;20041;-79
2022/03/19 08:59:01;;;;;;;28.92;15.52;;;9.70;87.30;;;;;;5073532;28;20484;-79
2022/03/19 09:01:27;;;;;;;30.55;14.98;;;9.80;87.90;;;;;;5084604;28;20017;-79
2022/03/19 09:03:53;;;;;;;31.98;15.18;;;9.80;88.90;;;;;;5078332;28;20020;-79
2022/03/19 09:06:20;;;;;;;27.90;16.70;;;9.90;88.20;;;;;;5093028;28;20020;-79
2022/03/19 09:08:47;;;;;;;33.67;16.17;;;9.90;86.10;;;;;;5063051;28;20479;-79
2022/03/19 09:11:23;;;;;;;29.30;15.68;;;9.90;86.80;;;;;;5086508;28;20047;-78
2022/03/19 09:14:02;;;;;;;29.30;15.38;;;9.90;87.30;;;;;;5090514;28;20028;-79
2022/03/19 09:16:28;;;;;;;29.00;15.75;;;10.00;88.10;;;;;;5072580;28;20107;-79
2022/03/19 09:18:54;;;;;;;33.95;14.52;;;10.10;87.70;;;;;;5093245;28;20024;-79
2022/03/19 09:21:20;;;;;;;28.58;15.48;;;10.10;86.70;;;;;;5074605;28;20038;-78
2022/03/19 09:23:47;;;;;;;28.98;16.25;;;10.10;85.90;;;;;;5092525;28;20024;-79
2022/03/19 09:26:13;;;;;;;28.42;15.07;;;10.20;86.10;;;;;;5084342;28;20035;-79
2022/03/19 09:28:42;;;;;;;29.63;16.85;;;10.30;85.50;;;;;;5073912;28;20020;-79
2022/03/19 09:31:08;;;;;;;23.50;14.65;;;10.40;86.60;;;;;;5084334;28;20032;-79
2022/03/19 09:33:34;;;;;;;25.17;15.15;;;10.40;84.30;;;;;;5071923;28;20273;-79
2022/03/19 09:36:01;;;;;;;28.42;14.07;;;10.40;83.90;;;;;;5053743;28;20024;-80
2022/03/19 09:38:30;;;;;;;28.88;15.55;;;10.40;84.50;;;;;;5071576;28;20021;-80
2022/03/19 09:40:56;;;;;;;25.70;15.73;;;10.40;85.90;;;;;;5071261;28;20035;-79
2022/03/19 09:43:26;;;;;;;26.33;15.73;;;10.50;87.20;;;;;;5070204;28;20048;-80
2022/03/19 09:45:53;;;;;;;33.45;15.93;;;10.60;85.50;;;;;;5070202;28;20051;-79
2022/03/19 09:48:19;;;;;;;30.15;15.43;;;10.70;84.00;;;;;;5070968;28;20020;-80
2022/03/19 09:50:49;;;;;;;28.45;15.25;;;10.60;81.40;;;;;;5070684;28;20048;-80
2022/03/19 09:53:19;;;;;;;27.58;15.20;;;10.60;84.10;;;;;;5052575;28;20283;-79
2022/03/19 09:55:46;;;;;;;27.25;14.30;;;10.70;83.30;;;;;;5070466;28;20128;-79
2022/03/19 09:58:13;;;;;;;22.95;14.30;;;10.80;82.00;;;;;;5072694;28;20424;-79
2022/03/19 10:00:39;;;;;;;27.17;15.73;;;10.70;82.40;;;;;;5070653;28;20025;-79
2022/03/19 10:03:09;;;;;;;33.00;15.80;;;10.90;84.60;;;;;;5071519;28;20056;-79
2022/03/19 10:08:41;;;;;;;26.50;15.13;;;10.90;79.70;;;;;;5071873;28;20176;-80
2022/03/19 10:11:15;;;;;;;31.27;16.95;;;10.90;80.90;;;;;;5071569;28;20023;-79
2022/03/19 10:13:46;;;;;;;28.70;16.10;;;11.00;80.30;;;;;;5071327;28;20023;-79
2022/03/19 10:16:17;;;;;;;30.55;15.43;;;10.90;80.10;;;;;;5071468;28;20055;-79
2022/03/19 10:18:46;;;;;;;27.83;14.18;;;11.00;80.10;;;;;;5071674;28;20024;-80
2022/03/19 10:21:16;;;;;;;30.58;15.15;;;11.00;77.50;;;;;;5071529;28;20111;-80
2022/03/19 10:23:42;;;;;;;27.58;14.73;;;11.10;78.20;;;;;;5053688;28;20025;-80
2022/03/19 10:26:22;;;;;;;26.23;14.38;;;11.20;78.20;;;;;;5071692;28;20052;-73
2022/03/19 10:29:05;;;;;;;24.13;13.73;;;11.30;77.70;;;;;;5054141;28;20017;-73
2022/03/19 10:31:44;;;;;;;22.08;13.93;;;11.60;78.90;;;;;;5071565;28;20426;-73
2022/03/19 10:34:10;;;;;;;26.83;14.68;;;11.80;76.10;;;;;;5054159;28;20035;-73
2022/03/19 10:36:38;;;;;;;25.75;13.93;;;12.00;76.20;;;;;;5071309;28;20403;-73
2022/03/19 10:39:26;;;;;;;22.63;14.40;;;12.00;74.50;;;;;;5071238;28;20108;-73
2022/03/19 10:41:54;;;;;;;22.95;13.80;;;12.00;72.50;;;;;;5071141;28;20066;-73
2022/03/19 10:44:23;;;;;;;23.42;14.20;;;11.90;73.30;;;;;;5079049;28;20020;-73
2022/03/19 10:46:51;;;;;;;20.48;13.90;;;12.00;73.80;;;;;;5094031;28;20028;-73
2022/03/19 10:49:22;;;;;;;23.73;13.75;;;12.00;72.40;;;;;;5094322;28;20067;-73
2022/03/19 10:51:50;;;;;;;23.48;13.18;;;12.10;72.90;;;;;;5095704;28;20421;-73
2022/03/19 10:54:16;;;;;;;25.40;13.95;;;12.10;71.60;;;;;;5095432;28;20016;-73
2022/03/19 10:56:43;;;;;;;23.05;13.18;;;12.10;72.50;;;;;;5093631;28;20040;-73
2022/03/19 10:59:09;;;;;;;21.73;12.77;;;12.30;74.50;;;;;;5095529;28;20387;-73
2022/03/19 11:01:36;;;;;;;25.50;13.80;;;12.40;75.60;;;;;;5083790;28;20031;-73
2022/03/19 11:04:04;;;;;;;21.60;13.30;;;12.60;71.60;;;;;;5074854;28;20361;-73
2022/03/19 11:06:38;;;;;;;22.05;13.95;;;12.50;70.80;;;;;;5074654;28;20036;-73
2022/03/19 11:09:09;;;;;;;26.13;14.23;;;12.60;72.20;;;;;;5056874;28;20024;-73
2022/03/19 11:12:01;;;;;;;21.97;13.30;;;12.90;72.70;;;;;;5074843;28;20020;-73
2022/03/19 11:14:28;;;;;;;24.70;12.90;;;12.90;68.90;;;;;;5074844;28;20030;-73
2022/03/19 11:17:30;;;;;;;21.98;13.48;;;13.00;69.10;;;;;;5083472;28;20062;-72
2022/03/19 11:20:41;;;;;;;24.17;13.70;;;13.00;68.20;;;;;;5094912;28;20035;-73
2022/03/19 11:23:30;;;;;;;23.00;13.52;;;13.00;67.00;;;;;;5012944;28;20390;-73
2022/03/19 11:25:57;;;;;;;23.27;13.38;;;13.00;67.10;;;;;;5090537;28;20073;-74
2022/03/19 11:28:42;;;;;;;19.55;12.50;;;13.10;67.20;;;;;;5094830;28;20027;-74
2022/03/19 11:31:09;;;;;;;24.95;13.57;;;13.20;68.80;;;;;;5076683;28;20031;-74
2022/03/19 11:33:36;;;;;;;29.67;13.52;;;13.30;69.60;;;;;;5076690;28;20020;-74
2022/03/19 11:36:10;;;;;;;20.05;12.25;;;13.40;67.30;;;;;;5094844;28;20147;-74
2022/03/19 11:39:05;;;;;;;27.75;13.60;;;13.40;66.00;;;;;;5094472;28;20086;-74
2022/03/19 11:41:31;;;;;;;21.95;13.25;;;13.30;63.70;;;;;;5090518;28;20028;-75
2022/03/19 11:44:17;;;;;;;22.38;13.98;;;13.40;63.90;;;;;;5088282;28;20028;-74
2022/03/19 11:47:13;;;;;;;24.48;13.57;;;13.40;62.60;;;;;;5091308;28;20044;-74
2022/03/19 11:49:55;;;;;;;19.60;12.07;;;13.50;65.90;;;;;;5090668;28;20471;-74
2022/03/19 11:52:27;;;;;;;18.73;12.82;;;13.60;64.10;;;;;;5091250;28;20429;-73
2022/03/19 11:55:04;;;;;;;24.55;13.15;;;13.70;65.80;;;;;;5092426;28;20383;-73
2022/03/19 11:57:45;;;;;;;31.27;13.90;;;13.70;63.10;;;;;;5093185;28;20582;-73
2022/03/19 12:00:17;;;;;;;19.40;12.23;;;13.80;62.40;;;;;;5073609;28;20020;-73
2022/03/19 12:03:03;;;;;;;27.00;13.70;;;13.90;63.50;;;;;;5091665;28;20065;-73
2022/03/19 12:05:29;;;;;;;25.27;12.80;;;13.90;61.80;;;;;;5075560;28;20520;-74
2022/03/19 12:07:57;;;;;;;21.48;12.40;;;13.90;59.80;;;;;;5092611;28;20298;-74
2022/03/19 12:10:31;;;;;;;20.30;11.95;;;13.90;60.20;;;;;;5075992;28;20032;-73
2022/03/19 12:12:58;;;;;;;18.92;11.82;;;14.00;61.50;;;;;;5094239;28;20016;-74
2022/03/19 12:15:32;;;;;;;21.98;13.05;;;14.20;60.20;;;;;;5094012;28;20024;-74
2022/03/19 12:18:33;;;;;;;18.77;12.13;;;14.30;59.70;;;;;;5075120;28;20418;-74
2022/03/19 12:21:21;;;;;;;21.60;12.05;;;14.40;58.80;;;;;;5075727;28;20024;-74
2022/03/19 12:24:12;;;;;;;17.05;10.63;;;14.40;58.50;;;;;;5092544;28;20032;-73
2022/03/19 12:26:56;;;;;;;17.75;10.48;;;14.60;60.20;;;;;;5075429;28;20157;-73
2022/03/19 12:29:25;;;;;;;16.58;11.05;;;14.60;58.80;;;;;;5075606;28;20168;-73
2022/03/19 12:31:52;;;;;;;17.23;11.02;;;14.60;57.10;;;;;;5093738;28;20108;-73
2022/03/19 12:34:23;;;;;;;21.65;12.10;;;14.70;56.40;;;;;;5093373;28;20020;-73
2022/03/19 12:36:56;;;;;;;16.27;10.70;;;14.80;57.90;;;;;;5075443;28;20062;-75
2022/03/19 12:39:22;;;;;;;23.20;10.60;;;15.00;56.70;;;;;;5092816;28;20020;-74
2022/03/19 12:41:48;;;;;;;20.13;10.27;;;15.00;54.90;;;;;;5093851;28;20491;-74
2022/03/19 12:44:22;;;;;;;16.40;10.18;;;15.00;54.00;;;;;;5076042;28;20024;-75
2022/03/19 12:46:59;;;;;;;19.52;11.10;;;15.10;55.40;;;;;;5113864;28;20027;-74
2022/03/19 12:49:26;;;;;;;14.55;9.95;;;15.10;53.20;;;;;;5102488;28;20012;-74
2022/03/19 12:51:53;;;;;;;20.25;11.00;;;15.10;53.50;;;;;;5092932;28;20020;-74
2022/03/19 12:54:28;;;;;;;16.35;10.38;;;15.10;54.40;;;;;;5075257;28;20051;-74
2022/03/19 12:56:57;;;;;;;17.15;10.82;;;15.30;54.30;;;;;;5074965;28;20415;-74
2022/03/19 12:59:28;;;;;;;17.70;10.90;;;15.20;53.60;;;;;;5093166;28;20019;-74
2022/03/19 13:01:55;;;;;;;16.67;11.35;;;15.30;53.70;;;;;;5093145;28;20365;-74